Time;durP1;ratioP1;P1;durP2;ratioP2;P2;SDS_P1;SDS_P2;PMS_P1;PMS_P2;Temp;Humidity;BMP_temperature;BMP_pressure;BME280_temperature;BME280_humidity;BME280_pressure;Samples;Min_cycle;Max_cycle;Signal;HPM_P1;HPM_P2
2022/05/20 00:00:25;;;;;;;7.93;5.65;;;15.30;77.10;;;;;;5061965;28;20388;-68
2022/05/20 00:02:51;;;;;;;6.80;5.22;;;15.30;77.20;;;;;;5062712;28;20434;-67
2022/05/20 00:05:17;;;;;;;6.50;4.97;;;15.20;77.20;;;;;;5051160;28;20116;-66
2022/05/20 00:07:43;;;;;;;6.97;4.70;;;15.20;77.30;;;;;;5064060;28;20063;-67
2022/05/20 00:10:10;;;;;;;7.22;5.20;;;15.20;77.30;;;;;;5058453;28;20017;-66
2022/05/20 00:12:37;;;;;;;7.47;4.88;;;15.20;77.40;;;;;;5068844;28;20103;-67
2022/05/20 00:15:05;;;;;;;7.68;5.03;;;15.10;77.40;;;;;;5060042;28;20053;-67
2022/05/20 00:17:30;;;;;;;6.53;4.85;;;15.10;77.40;;;;;;5050587;28;20033;-67
2022/05/20 00:19:56;;;;;;;5.85;4.88;;;15.10;77.50;;;;;;5061780;28;20051;-67
2022/05/20 00:22:21;;;;;;;7.32;5.13;;;15.10;77.50;;;;;;5073532;28;20027;-67
2022/05/20 00:27:31;;;;;;;7.32;4.80;;;15.10;77.50;;;;;;5058452;28;20561;-67
2022/05/20 00:29:58;;;;;;;7.55;5.38;;;15.10;77.40;;;;;;5064639;28;20024;-68
2022/05/20 00:32:23;;;;;;;6.45;4.72;;;15.10;77.40;;;;;;5045916;28;20025;-67
2022/05/20 00:34:49;;;;;;;7.70;5.53;;;15.10;77.40;;;;;;5050081;28;20592;-67
2022/05/20 00:37:14;;;;;;;7.32;5.60;;;15.00;77.30;;;;;;5045899;28;20052;-67
2022/05/20 00:39:40;;;;;;;7.63;5.57;;;15.00;77.40;;;;;;5057673;28;20033;-67
2022/05/20 00:42:14;;;;;;;6.47;5.55;;;15.00;77.50;;;;;;5060919;28;20737;-67
2022/05/20 00:44:40;;;;;;;7.38;5.07;;;15.00;77.50;;;;;;5057399;28;20047;-68
2022/05/20 00:47:06;;;;;;;6.20;4.80;;;14.90;77.50;;;;;;5054052;28;20078;-67
2022/05/20 00:49:33;;;;;;;6.65;5.28;;;14.90;77.50;;;;;;5058650;28;20126;-68
2022/05/20 00:51:59;;;;;;;6.20;5.30;;;14.90;77.70;;;;;;5062249;28;20146;-68
2022/05/20 00:54:30;;;;;;;6.78;5.28;;;14.90;77.60;;;;;;5050343;28;20108;-67
2022/05/20 00:57:04;;;;;;;6.88;5.05;;;14.90;77.50;;;;;;5051825;28;20530;-67
2022/05/20 00:59:33;;;;;;;7.57;5.28;;;14.90;77.70;;;;;;5048974;28;20101;-67
2022/05/20 01:02:15;;;;;;;6.35;5.43;;;14.90;77.70;;;;;;5052974;28;20063;-66
2022/05/20 01:04:41;;;;;;;7.45;5.38;;;14.80;77.70;;;;;;5062658;28;20123;-66
2022/05/20 01:07:08;;;;;;;6.43;5.40;;;14.80;77.80;;;;;;5053779;28;20487;-66
2022/05/20 01:09:36;;;;;;;7.30;5.88;;;14.70;77.90;;;;;;5048076;28;20159;-67
2022/05/20 01:12:03;;;;;;;7.35;5.70;;;14.70;77.90;;;;;;5061486;28;20517;-67
2022/05/20 01:14:28;;;;;;;6.45;5.65;;;14.70;78.00;;;;;;5051216;28;20057;-67
2022/05/20 01:16:54;;;;;;;7.18;5.70;;;14.70;78.10;;;;;;5045872;28;20063;-67
2022/05/20 01:19:42;;;;;;;8.10;5.57;;;14.70;78.10;;;;;;5055749;28;20515;-68
2022/05/20 01:22:11;;;;;;;6.75;5.10;;;14.70;78.10;;;;;;5051789;28;20043;-67
2022/05/20 01:24:36;;;;;;;6.22;5.50;;;14.60;78.10;;;;;;5052335;28;20418;-68
2022/05/20 01:27:03;;;;;;;6.93;5.43;;;14.60;78.20;;;;;;5062439;28;20021;-68
2022/05/20 01:29:29;;;;;;;8.68;5.82;;;14.60;78.60;;;;;;5058505;28;20036;-67
2022/05/20 01:31:54;;;;;;;7.38;5.80;;;14.60;78.20;;;;;;5059022;28;20028;-68
2022/05/20 01:34:20;;;;;;;6.05;4.85;;;14.50;78.20;;;;;;5057561;28;20037;-67
2022/05/20 01:36:46;;;;;;;6.43;4.80;;;14.50;78.20;;;;;;5049906;28;20028;-67
2022/05/20 01:39:12;;;;;;;7.50;5.93;;;14.60;78.30;;;;;;5056954;28;20161;-68
2022/05/20 01:41:45;;;;;;;7.53;5.72;;;14.60;78.30;;;;;;5059163;28;20112;-67
2022/05/20 01:44:36;;;;;;;7.32;5.65;;;14.60;78.30;;;;;;5051433;28;20036;-66
2022/05/20 01:47:10;;;;;;;6.80;5.53;;;14.60;78.20;;;;;;5050180;28;20487;-66
2022/05/20 01:49:40;;;;;;;6.32;4.88;;;14.60;78.20;;;;;;5038124;28;20029;-66
2022/05/20 01:52:17;;;;;;;6.22;5.60;;;14.60;78.20;;;;;;5051994;28;20044;-67
2022/05/20 01:55:08;;;;;;;6.00;4.47;;;14.60;78.10;;;;;;5051337;28;20021;-67
2022/05/20 01:57:58;;;;;;;6.73;4.80;;;14.60;78.10;;;;;;5039877;28;20041;-67
2022/05/20 02:00:27;;;;;;;6.95;5.32;;;14.50;78.70;;;;;;5046158;28;20029;-68
2022/05/20 02:02:59;;;;;;;6.97;5.63;;;14.50;78.10;;;;;;5045615;28;20083;-67
2022/05/20 02:05:54;;;;;;;6.45;5.20;;;14.50;78.10;;;;;;5049616;28;20100;-68
2022/05/20 02:08:33;;;;;;;6.05;5.03;;;14.50;78.10;;;;;;5046514;28;20045;-68
2022/05/20 02:11:05;;;;;;;6.28;5.22;;;14.50;78.10;;;;;;5045690;28;20060;-68
2022/05/20 02:13:32;;;;;;;;;;;14.50;78.00;;;;;;5045393;28;20057;-68
2022/05/20 02:16:15;;;;;;;5.75;4.80;;;14.50;78.00;;;;;;5042925;28;20054;-68
2022/05/20 02:18:43;;;;;;;;;;;14.50;77.90;;;;;;5045084;28;20029;-68
2022/05/20 02:21:12;;;;;;;6.22;4.35;;;14.40;77.80;;;;;;5045826;28;19995;-67
2022/05/20 02:23:44;;;;;;;5.35;4.85;;;14.40;78.00;;;;;;5048587;28;20040;-67
2022/05/20 02:26:16;;;;;;;5.83;4.90;;;14.40;78.00;;;;;;5042191;28;20053;-67
2022/05/20 02:28:47;;;;;;;5.45;4.75;;;14.40;78.00;;;;;;5039646;28;20304;-68
2022/05/20 02:31:22;;;;;;;5.97;5.05;;;14.40;77.90;;;;;;5051256;28;20013;-68
2022/05/20 02:33:48;;;;;;;6.60;5.15;;;14.40;77.80;;;;;;5060551;28;20052;-68
2022/05/20 02:36:28;;;;;;;6.13;5.35;;;14.40;77.70;;;;;;5044444;28;20063;-69
2022/05/20 02:38:53;;;;;;;6.85;5.45;;;14.40;77.70;;;;;;5054283;28;20135;-68
2022/05/20 02:41:19;;;;;;;5.50;4.60;;;14.40;77.70;;;;;;5042512;28;20535;-66
2022/05/20 02:43:45;;;;;;;6.38;5.00;;;14.40;77.60;;;;;;5049359;28;20044;-67
2022/05/20 02:46:12;;;;;;;5.60;4.63;;;14.40;77.60;;;;;;5054392;28;20032;-68
2022/05/20 02:48:38;;;;;;;6.10;4.90;;;14.40;78.20;;;;;;5062720;28;20582;-66
2022/05/20 02:51:04;;;;;;;5.88;5.00;;;14.40;77.50;;;;;;5064188;28;20028;-67
2022/05/20 02:53:30;;;;;;;5.72;4.97;;;14.40;77.40;;;;;;5063314;28;20078;-66
2022/05/20 02:55:55;;;;;;;5.28;4.78;;;14.40;77.30;;;;;;5047863;28;20056;-68
2022/05/20 03:04:10;;;;;;;7.35;5.20;;;14.40;77.20;;;;;;5065703;28;20082;-67
2022/05/20 03:06:42;;;;;;;5.32;4.60;;;14.30;77.10;;;;;;5059475;28;20552;-67
2022/05/20 03:09:09;;;;;;;5.22;4.22;;;14.30;77.20;;;;;;5063257;28;20126;-67
2022/05/20 03:11:36;;;;;;;5.90;4.80;;;14.20;77.40;;;;;;5059262;28;20364;-67
2022/05/20 03:14:03;;;;;;;5.45;4.68;;;14.20;77.60;;;;;;5059656;28;20495;-67
2022/05/20 03:16:29;;;;;;;5.43;4.05;;;14.10;77.40;;;;;;5046530;28;20620;-68
2022/05/20 03:18:54;;;;;;;7.97;5.00;;;14.10;77.50;;;;;;5060165;28;20051;-67
2022/05/20 03:21:20;;;;;;;5.55;4.28;;;13.90;77.70;;;;;;5037288;28;20077;-68
2022/05/20 03:23:45;;;;;;;5.57;4.43;;;13.90;78.10;;;;;;5059412;28;20012;-67
2022/05/20 03:26:11;;;;;;;5.68;4.55;;;13.90;78.30;;;;;;5057338;28;20017;-67
2022/05/20 03:28:37;;;;;;;6.70;5.30;;;13.90;78.10;;;;;;5057990;28;20364;-67
2022/05/20 03:31:07;;;;;;;6.32;4.97;;;13.90;78.00;;;;;;5044485;28;20432;-67
2022/05/20 03:33:37;;;;;;;5.68;4.32;;;14.00;77.90;;;;;;5059528;28;20386;-68
2022/05/20 03:36:04;;;;;;;5.25;4.43;;;14.00;77.70;;;;;;5047397;28;20021;-67
2022/05/20 03:38:30;;;;;;;5.25;4.35;;;13.90;77.70;;;;;;5058443;28;20398;-67
2022/05/20 03:40:56;;;;;;;5.97;5.22;;;13.90;77.70;;;;;;5053536;28;20636;-67
2022/05/20 03:43:22;;;;;;;6.72;5.07;;;13.90;77.80;;;;;;5060799;28;20541;-67
2022/05/20 03:45:48;;;;;;;5.00;4.40;;;13.90;77.90;;;;;;5052006;28;20113;-67
2022/05/20 03:48:14;;;;;;;5.53;4.18;;;13.90;77.80;;;;;;5066651;28;20103;-67
2022/05/20 03:50:39;;;;;;;6.90;4.95;;;13.90;77.90;;;;;;5056078;28;20025;-68
2022/05/20 03:53:05;;;;;;;5.57;4.65;;;13.90;78.50;;;;;;5052994;28;20024;-68
2022/05/20 03:55:30;;;;;;;5.38;4.47;;;13.90;77.70;;;;;;5057827;28;20082;-68
2022/05/20 03:57:56;;;;;;;6.35;4.90;;;13.80;77.70;;;;;;5043815;28;20116;-68
2022/05/20 04:00:22;;;;;;;5.50;4.80;;;13.80;77.80;;;;;;5046264;28;20044;-68
2022/05/20 04:02:47;;;;;;;6.28;4.90;;;13.90;77.70;;;;;;5048870;28;20028;-66
2022/05/20 04:05:13;;;;;;;5.40;4.35;;;13.90;77.70;;;;;;5058683;28;20020;-67
2022/05/20 04:07:41;;;;;;;5.75;4.72;;;13.90;77.80;;;;;;5046653;28;20029;-67
2022/05/20 04:10:08;;;;;;;5.53;4.57;;;13.90;77.80;;;;;;5061773;28;20017;-67
2022/05/20 04:12:37;;;;;;;6.35;5.10;;;13.90;77.60;;;;;;5046589;28;20120;-66
2022/05/20 04:15:06;;;;;;;6.43;4.65;;;13.90;77.60;;;;;;5061087;28;20020;-67
2022/05/20 04:17:32;;;;;;;5.68;4.38;;;13.90;77.60;;;;;;5043032;28;20503;-67
2022/05/20 04:19:57;;;;;;;5.15;4.55;;;14.00;77.50;;;;;;5063446;28;20025;-66
2022/05/20 04:22:35;;;;;;;6.80;5.00;;;14.00;77.50;;;;;;5043559;28;20033;-66
2022/05/20 04:25:00;;;;;;;5.85;5.15;;;14.00;77.70;;;;;;5052219;28;20105;-67
2022/05/20 04:27:29;;;;;;;6.75;5.47;;;14.00;77.80;;;;;;5038510;28;20114;-67
2022/05/20 04:29:56;;;;;;;7.13;5.20;;;14.10;77.70;;;;;;5052253;28;20471;-66
2022/05/20 04:32:22;;;;;;;6.35;5.45;;;14.20;77.70;;;;;;5047137;28;20025;-67
2022/05/20 04:34:48;;;;;;;8.73;7.20;;;14.20;77.60;;;;;;5048462;28;20465;-67
2022/05/20 04:37:14;;;;;;;8.38;6.72;;;14.20;77.80;;;;;;5048244;28;20376;-67
2022/05/20 04:39:40;;;;;;;9.35;7.30;;;14.30;77.90;;;;;;5047864;28;20040;-66
2022/05/20 04:47:34;;;;;;;7.38;6.57;;;14.40;77.90;;;;;;5047477;28;20087;-67
2022/05/20 04:50:01;;;;;;;9.40;7.68;;;14.40;78.20;;;;;;5047354;28;20033;-67
2022/05/20 04:52:26;;;;;;;11.88;8.80;;;14.40;78.50;;;;;;5048011;28;20049;-67
2022/05/20 04:54:52;;;;;;;10.18;8.02;;;14.30;78.90;;;;;;5045595;28;20061;-68
2022/05/20 04:57:37;;;;;;;10.18;8.10;;;14.30;79.20;;;;;;5048625;28;20032;-67
2022/05/20 05:00:21;;;;;;;9.43;8.05;;;14.30;79.40;;;;;;5045960;28;20025;-67
2022/05/20 05:02:47;;;;;;;12.48;10.20;;;14.40;79.50;;;;;;5056008;28;20024;-67
2022/05/20 05:05:20;;;;;;;14.55;12.98;;;14.70;80.00;;;;;;5055364;28;20501;-68
2022/05/20 05:07:49;;;;;;;11.43;9.93;;;15.30;79.10;;;;;;5055561;28;20032;-68
2022/05/20 05:10:19;;;;;;;9.82;8.65;;;16.20;77.20;;;;;;5052110;28;20017;-66
2022/05/20 05:12:45;;;;;;;13.38;9.98;;;17.00;74.80;;;;;;5049791;28;20424;-66
2022/05/20 05:15:12;;;;;;;11.90;9.15;;;17.70;72.60;;;;;;5049940;28;20100;-67
2022/05/20 05:20:25;;;;;;;9.98;8.05;;;18.70;70.00;;;;;;5052454;28;20727;-66
2022/05/20 05:22:54;;;;;;;12.73;11.23;;;19.20;68.20;;;;;;5060968;28;20037;-67
2022/05/20 05:25:23;;;;;;;15.60;13.40;;;19.40;67.10;;;;;;5050160;28;20029;-67
2022/05/20 05:27:49;;;;;;;10.35;9.10;;;19.60;66.40;;;;;;5068391;28;20028;-66
2022/05/20 05:30:16;;;;;;;10.63;8.65;;;19.80;65.80;;;;;;5046789;28;20060;-66
2022/05/20 05:32:42;;;;;;;8.88;7.63;;;19.90;65.30;;;;;;5040456;28;20820;-66
2022/05/20 05:35:12;;;;;;;9.93;8.40;;;20.10;65.00;;;;;;5056284;28;20025;-67
2022/05/20 05:37:39;;;;;;;11.63;9.32;;;20.40;64.80;;;;;;5064920;28;20024;-67
2022/05/20 05:40:12;;;;;;;11.20;9.20;;;20.70;64.40;;;;;;5040410;28;20028;-68
2022/05/20 05:42:39;;;;;;;9.77;7.35;;;20.70;62.60;;;;;;5039354;28;20060;-67
2022/05/20 05:45:06;;;;;;;10.18;8.13;;;21.00;62.20;;;;;;5032032;28;20025;-66
2022/05/20 05:47:31;;;;;;;9.18;6.88;;;21.20;61.40;;;;;;5043780;28;20030;-68
2022/05/20 05:49:57;;;;;;;8.88;6.97;;;21.00;61.10;;;;;;5043535;28;20029;-66
2022/05/20 05:52:23;;;;;;;8.82;6.35;;;21.00;60.70;;;;;;5039387;28;20102;-67
2022/05/20 05:54:48;;;;;;;5.80;4.65;;;21.40;60.40;;;;;;5042451;28;20032;-66
2022/05/20 05:57:14;;;;;;;7.90;6.00;;;21.80;59.60;;;;;;5054796;28;20024;-67
2022/05/20 05:59:43;;;;;;;8.45;6.72;;;21.80;58.60;;;;;;5039448;28;20043;-67
2022/05/20 06:02:09;;;;;;;6.85;5.43;;;21.40;58.10;;;;;;5034787;28;20036;-67
2022/05/20 06:04:35;;;;;;;7.10;4.70;;;21.50;58.50;;;;;;5044513;28;20025;-67
2022/05/20 06:07:01;;;;;;;6.90;6.15;;;21.70;58.30;;;;;;5045178;28;20033;-67
2022/05/20 06:09:27;;;;;;;9.82;6.22;;;21.90;57.70;;;;;;5037817;28;20021;-66
2022/05/20 06:11:52;;;;;;;7.15;5.28;;;21.80;56.80;;;;;;5038488;28;20032;-66
2022/05/20 06:14:18;;;;;;;8.77;5.57;;;21.60;57.20;;;;;;5041132;28;20021;-66
2022/05/20 06:16:44;;;;;;;7.63;5.25;;;21.30;57.60;;;;;;5043402;28;20025;-67
2022/05/20 06:19:10;;;;;;;8.93;5.93;;;21.70;57.80;;;;;;5064731;28;20032;-66
2022/05/20 06:21:37;;;;;;;9.13;6.63;;;22.00;57.50;;;;;;5047606;28;20051;-67
2022/05/20 06:24:03;;;;;;;8.93;6.63;;;21.80;57.50;;;;;;5042709;28;20115;-67
2022/05/20 06:26:29;;;;;;;8.55;6.72;;;21.70;57.70;;;;;;5051691;28;20082;-67
2022/05/20 06:28:55;;;;;;;7.88;5.32;;;21.10;58.30;;;;;;5039647;28;20025;-68
2022/05/20 06:31:21;;;;;;;8.80;6.35;;;20.60;60.10;;;;;;5039750;28;20037;-67
2022/05/20 06:33:46;;;;;;;9.77;6.88;;;20.30;61.40;;;;;;5045249;28;20356;-67
2022/05/20 06:41:41;;;;;;;10.63;7.80;;;19.50;64.40;;;;;;5048938;28;20039;-66
2022/05/20 06:44:07;;;;;;;11.38;7.80;;;19.40;65.10;;;;;;5049542;28;20103;-67
2022/05/20 06:46:33;;;;;;;9.85;7.18;;;19.30;64.70;;;;;;5041061;28;20109;-67
2022/05/20 06:49:00;;;;;;;9.38;7.60;;;19.10;65.50;;;;;;5043685;28;20103;-67
2022/05/20 06:51:28;;;;;;;13.30;9.30;;;19.10;65.60;;;;;;5049779;28;20020;-67
2022/05/20 06:53:56;;;;;;;9.07;6.65;;;19.00;65.60;;;;;;5046732;28;20032;-67
2022/05/20 06:56:24;;;;;;;8.02;5.55;;;19.00;65.90;;;;;;5044775;28;20040;-66
2022/05/20 06:58:50;;;;;;;10.82;7.38;;;19.10;65.60;;;;;;5049701;28;20031;-67
2022/05/20 07:01:16;;;;;;;8.77;6.47;;;19.20;65.30;;;;;;5039183;28;20027;-66
2022/05/20 07:03:41;;;;;;;11.10;6.65;;;19.40;65.40;;;;;;5051050;28;20025;-67
2022/05/20 07:06:09;;;;;;;9.57;6.47;;;19.50;64.80;;;;;;5049193;28;20052;-66
2022/05/20 07:08:36;;;;;;;10.07;6.45;;;19.50;64.00;;;;;;5039409;28;20040;-67
2022/05/20 07:11:02;;;;;;;8.57;5.88;;;19.50;63.90;;;;;;5040309;28;20025;-67
2022/05/20 07:13:31;;;;;;;9.80;6.60;;;19.50;63.70;;;;;;5051286;28;20447;-67
2022/05/20 07:15:58;;;;;;;8.05;6.13;;;19.60;63.30;;;;;;5046704;28;20029;-67
2022/05/20 07:18:27;;;;;;;7.70;5.60;;;19.60;63.20;;;;;;5042587;28;20395;-67
2022/05/20 07:20:53;;;;;;;7.60;5.72;;;19.70;63.00;;;;;;5041547;28;20025;-67
2022/05/20 07:23:19;;;;;;;9.13;6.20;;;19.70;62.90;;;;;;5052194;28;20029;-67
2022/05/20 07:25:45;;;;;;;9.07;6.60;;;19.90;62.90;;;;;;5048364;28;20025;-67
2022/05/20 07:28:10;;;;;;;8.65;5.82;;;19.90;62.60;;;;;;5049662;28;20033;-67
2022/05/20 07:30:36;;;;;;;6.13;4.63;;;20.00;62.60;;;;;;5042258;28;20025;-67
2022/05/20 07:33:02;;;;;;;7.93;5.90;;;20.10;62.70;;;;;;5052342;28;20506;-67
2022/05/20 07:35:28;;;;;;;9.75;6.68;;;20.20;62.10;;;;;;5042546;28;20033;-66
2022/05/20 07:37:54;;;;;;;8.85;7.15;;;20.00;61.90;;;;;;5049907;28;20027;-67
2022/05/20 07:40:22;;;;;;;8.05;6.65;;;19.90;61.90;;;;;;5047001;28;20414;-67
2022/05/20 07:42:48;;;;;;;9.63;6.80;;;19.80;61.60;;;;;;5051951;28;20032;-67
2022/05/20 07:45:15;;;;;;;9.07;7.28;;;19.90;61.80;;;;;;5051043;28;20438;-67
2022/05/20 07:47:41;;;;;;;6.30;4.82;;;20.00;61.90;;;;;;5047929;28;20087;-67
2022/05/20 07:50:08;;;;;;;8.20;5.80;;;20.20;61.60;;;;;;5047996;28;20017;-67
2022/05/20 07:55:25;;;;;;;9.10;6.68;;;20.40;61.00;;;;;;5040377;28;20131;-68
2022/05/20 07:57:52;;;;;;;8.82;6.20;;;20.40;60.80;;;;;;5050722;28;20052;-68
2022/05/20 08:00:20;;;;;;;6.60;5.32;;;20.50;60.60;;;;;;5042017;28;20075;-68
2022/05/20 08:02:45;;;;;;;7.32;5.47;;;20.50;60.70;;;;;;5044453;28;20033;-67
2022/05/20 08:05:11;;;;;;;8.55;6.18;;;20.50;60.20;;;;;;5046813;28;20033;-68
2022/05/20 08:07:41;;;;;;;8.48;5.68;;;20.30;60.40;;;;;;5034630;28;20064;-68
2022/05/20 08:10:24;;;;;;;7.00;4.93;;;20.40;60.90;;;;;;5044132;28;20098;-68
2022/05/20 08:12:50;;;;;;;6.55;4.22;;;20.70;60.40;;;;;;5038817;28;20053;-67
2022/05/20 08:15:16;;;;;;;6.55;4.30;;;21.00;59.70;;;;;;5049710;28;20130;-66
2022/05/20 08:17:43;;;;;;;5.82;4.13;;;21.30;59.10;;;;;;5042157;28;20036;-68
2022/05/20 08:20:18;;;;;;;4.47;3.30;;;21.60;58.20;;;;;;5047190;28;20119;-67
2022/05/20 08:22:43;;;;;;;5.70;3.90;;;21.90;57.60;;;;;;5044853;28;20025;-68
2022/05/20 08:25:10;;;;;;;3.90;3.28;;;22.00;56.90;;;;;;5044070;28;20032;-68
2022/05/20 08:27:36;;;;;;;5.38;3.67;;;22.10;56.50;;;;;;5045916;28;20064;-67
2022/05/20 08:30:11;;;;;;;4.10;3.17;;;22.20;56.20;;;;;;5050265;28;20082;-67
2022/05/20 08:32:37;;;;;;;6.03;3.40;;;22.20;55.90;;;;;;5048239;28;20048;-67
2022/05/20 08:35:04;;;;;;;4.93;3.55;;;22.10;54.60;;;;;;5038907;28;20021;-67
2022/05/20 08:37:30;;;;;;;4.40;2.85;;;21.80;54.80;;;;;;5045511;28;20125;-66
2022/05/20 08:39:56;;;;;;;4.50;2.78;;;21.80;55.70;;;;;;5045303;28;20517;-67
2022/05/20 08:42:26;;;;;;;4.95;2.95;;;21.80;56.00;;;;;;5049073;28;20111;-66
2022/05/20 08:44:52;;;;;;;5.35;3.17;;;21.90;55.80;;;;;;5039427;28;20029;-66
2022/05/20 08:47:38;;;;;;;6.32;3.20;;;21.80;55.40;;;;;;5047676;28;21445;-68
2022/05/20 08:50:07;;;;;;;6.50;4.22;;;21.80;55.50;;;;;;5036931;28;20075;-66
2022/05/20 08:52:33;;;;;;;4.00;2.67;;;21.70;55.60;;;;;;5047195;28;20040;-67
2022/05/20 08:54:59;;;;;;;5.90;4.07;;;22.00;56.10;;;;;;5047598;28;20459;-66
2022/05/20 08:57:32;;;;;;;5.35;3.20;;;22.10;55.50;;;;;;5047370;28;20067;-67
2022/05/20 08:59:57;;;;;;;6.72;4.10;;;22.10;55.70;;;;;;5035256;28;20029;-67
2022/05/20 09:02:23;;;;;;;6.20;4.60;;;22.10;55.40;;;;;;5037867;28;20021;-67
2022/05/20 09:04:50;;;;;;;6.32;4.03;;;22.20;54.40;;;;;;5035359;28;20022;-67
2022/05/20 09:07:18;;;;;;;6.32;4.30;;;22.00;54.30;;;;;;5043530;28;20510;-66
2022/05/20 09:09:56;;;;;;;7.85;5.15;;;21.90;53.90;;;;;;5032589;28;20030;-66
2022/05/20 09:12:32;;;;;;;6.72;3.50;;;21.90;53.80;;;;;;5045826;28;20021;-67
2022/05/20 09:17:48;;;;;;;7.32;4.85;;;21.80;53.20;;;;;;5049130;28;20103;-67
2022/05/20 09:20:18;;;;;;;7.78;4.53;;;21.70;54.00;;;;;;5046621;28;20039;-66
2022/05/20 09:22:55;;;;;;;8.07;5.70;;;21.70;54.00;;;;;;5048908;28;20463;-66
2022/05/20 09:25:26;;;;;;;5.43;3.47;;;21.60;53.00;;;;;;5042524;28;20035;-66
2022/05/20 09:27:56;;;;;;;5.97;4.22;;;21.60;53.80;;;;;;5041395;28;20152;-66
2022/05/20 09:30:25;;;;;;;7.10;3.53;;;21.50;52.70;;;;;;5041212;28;20029;-68
2022/05/20 09:33:10;;;;;;;4.97;3.50;;;21.60;52.30;;;;;;5043646;28;20098;-66
2022/05/20 09:35:36;;;;;;;4.68;3.20;;;21.50;52.10;;;;;;5040623;28;20021;-66
2022/05/20 09:38:28;;;;;;;4.63;2.90;;;21.70;53.10;;;;;;5041473;28;20036;-66
2022/05/20 09:40:54;;;;;;;6.28;3.92;;;21.90;53.20;;;;;;5038554;28;20380;-67
2022/05/20 09:43:31;;;;;;;6.05;4.10;;;21.80;52.00;;;;;;5044401;28;20032;-66
2022/05/20 09:46:00;;;;;;;6.85;5.07;;;21.90;52.90;;;;;;5033284;28;20025;-67
2022/05/20 09:48:43;;;;;;;7.00;5.00;;;21.70;53.20;;;;;;5033873;28;20021;-67
2022/05/20 09:51:41;;;;;;;10.13;6.43;;;21.70;54.20;;;;;;5042578;28;20655;-67
2022/05/20 09:54:20;;;;;;;7.95;5.10;;;21.80;54.50;;;;;;5046740;28;20025;-66
2022/05/20 09:57:04;;;;;;;8.40;6.50;;;21.80;54.50;;;;;;5035321;28;20152;-66
2022/05/20 09:59:48;;;;;;;8.10;6.28;;;21.80;54.20;;;;;;5048580;28;20543;-66
2022/05/20 10:02:29;;;;;;;7.70;6.03;;;21.80;54.30;;;;;;5042248;28;20028;-66
2022/05/20 10:05:08;;;;;;;8.52;6.10;;;21.60;55.10;;;;;;5045541;28;20067;-67
2022/05/20 10:07:43;;;;;;;7.32;5.25;;;21.50;55.10;;;;;;5037938;28;20059;-67
2022/05/20 10:10:15;;;;;;;8.38;6.43;;;21.60;54.70;;;;;;5044433;28;20092;-66
2022/05/20 10:12:46;;;;;;;7.25;5.05;;;21.60;54.20;;;;;;5043611;28;20424;-67
2022/05/20 10:15:36;;;;;;;7.90;5.30;;;21.90;54.40;;;;;;5046277;28;20017;-67
2022/05/20 10:18:31;;;;;;;7.50;4.88;;;22.30;53.80;;;;;;5043204;28;20033;-67
2022/05/20 10:21:20;;;;;;;8.07;6.35;;;22.50;52.90;;;;;;5039622;28;20554;-67
2022/05/20 10:23:53;;;;;;;9.13;6.13;;;22.50;52.80;;;;;;5040038;28;20030;-66
2022/05/20 10:26:35;;;;;;;7.82;4.68;;;22.20;52.80;;;;;;5037597;28;20075;-67
2022/05/20 10:34:52;;;;;;;8.27;5.38;;;22.10;53.30;;;;;;5040611;28;20179;-67
2022/05/20 10:37:40;;;;;;;5.55;4.15;;;22.20;53.70;;;;;;5039580;28;20048;-68
2022/05/20 10:40:26;;;;;;;8.52;5.78;;;22.40;54.00;;;;;;5042304;28;20032;-67
2022/05/20 10:43:03;;;;;;;9.35;5.40;;;22.30;53.10;;;;;;5040928;28;20451;-68
2022/05/20 10:48:45;;;;;;;8.95;5.55;;;22.30;52.90;;;;;;5041128;28;20091;-66
2022/05/20 10:51:44;;;;;;;8.02;5.57;;;22.30;53.30;;;;;;5042564;28;20454;-67
2022/05/20 10:54:41;;;;;;;8.48;5.88;;;22.50;53.20;;;;;;5045576;28;20078;-66
2022/05/20 10:57:36;;;;;;;8.52;5.68;;;22.70;52.60;;;;;;5038515;28;20095;-67
2022/05/20 11:00:06;;;;;;;8.95;5.75;;;22.70;52.80;;;;;;5040899;28;20033;-67
2022/05/20 11:02:56;;;;;;;6.40;4.22;;;22.80;52.50;;;;;;5042293;28;20116;-67
2022/05/20 11:05:27;;;;;;;7.68;5.65;;;23.00;52.40;;;;;;5047961;28;20091;-67
2022/05/20 11:08:16;;;;;;;5.43;4.55;;;22.80;51.40;;;;;;5048939;28;20082;-67
2022/05/20 11:11:09;;;;;;;8.23;5.47;;;22.70;51.80;;;;;;5046318;28;20501;-66
2022/05/20 11:13:43;;;;;;;6.65;4.90;;;22.60;51.50;;;;;;5042436;28;20029;-66
2022/05/20 11:16:14;;;;;;;5.82;4.40;;;22.50;51.90;;;;;;5045304;28;20116;-66
2022/05/20 11:19:01;;;;;;;5.95;3.85;;;22.50;51.70;;;;;;5047766;28;21753;-67
2022/05/20 11:21:44;;;;;;;5.88;3.47;;;22.60;51.70;;;;;;5045647;28;20115;-65
2022/05/20 11:24:26;;;;;;;7.38;5.13;;;22.80;51.20;;;;;;5038980;28;20037;-67
2022/05/20 11:27:13;;;;;;;;;;;22.70;50.00;;;;;;5043863;28;20956;-67
2022/05/20 11:29:49;;;;;;;7.50;4.22;;;22.50;50.90;;;;;;5040545;28;19967;-66
2022/05/20 11:32:45;;;;;;;6.13;3.58;;;22.60;50.60;;;;;;5040692;28;20026;-66
2022/05/20 11:35:39;;;;;;;6.07;4.32;;;22.60;51.00;;;;;;5043345;28;20454;-67
2022/05/20 11:38:37;;;;;;;6.15;4.60;;;22.70;51.00;;;;;;5038567;28;20032;-69
2022/05/20 11:41:16;;;;;;;6.85;5.15;;;22.70;51.30;;;;;;5043196;28;20025;-66
2022/05/20 11:44:03;;;;;;;10.45;7.65;;;22.80;51.60;;;;;;5041675;28;20024;-66
2022/05/20 11:46:32;;;;;;;7.75;5.90;;;22.90;51.20;;;;;;5043006;28;20096;-67
2022/05/20 11:49:35;;;;;;;10.23;7.70;;;22.70;51.60;;;;;;5041252;28;20021;-66
2022/05/20 11:52:17;;;;;;;8.63;6.18;;;22.50;51.90;;;;;;5047193;28;20063;-68
2022/05/20 11:55:11;;;;;;;8.27;6.03;;;22.40;52.70;;;;;;5037974;28;20014;-66
2022/05/20 11:57:48;;;;;;;8.73;7.00;;;22.30;53.30;;;;;;5041477;28;20037;-66
2022/05/20 12:00:19;;;;;;;7.43;6.07;;;22.30;53.50;;;;;;5038933;28;20133;-66
2022/05/20 12:02:49;;;;;;;8.57;6.05;;;22.20;54.00;;;;;;5041710;28;20435;-67
2022/05/20 12:05:20;;;;;;;8.02;5.93;;;22.20;54.30;;;;;;5043506;28;20063;-65
2022/05/20 12:07:45;;;;;;;7.45;5.40;;;22.10;54.60;;;;;;5044273;28;20048;-66
2022/05/20 12:10:38;;;;;;;9.60;7.03;;;22.20;55.00;;;;;;5037784;28;20096;-68
2022/05/20 12:13:11;;;;;;;9.27;6.85;;;22.10;55.00;;;;;;5041933;28;20084;-67
2022/05/20 12:15:41;;;;;;;7.65;6.07;;;22.00;55.30;;;;;;5042526;28;20087;-67
2022/05/20 12:24:44;;;;;;;8.25;6.32;;;22.00;56.10;;;;;;5039060;28;20752;-67
2022/05/20 12:27:37;;;;;;;8.52;6.80;;;22.00;56.50;;;;;;5045543;28;20041;-67
2022/05/20 12:30:17;;;;;;;9.70;7.30;;;21.90;57.10;;;;;;5037121;28;20481;-67
2022/05/20 12:32:46;;;;;;;8.07;6.65;;;21.80;57.50;;;;;;5042325;28;20021;-68
2022/05/20 12:35:20;;;;;;;11.20;8.18;;;21.60;57.80;;;;;;5036319;28;20065;-68
2022/05/20 12:37:45;;;;;;;9.15;6.28;;;21.60;58.30;;;;;;5043527;28;20075;-68
2022/05/20 12:40:39;;;;;;;7.28;5.63;;;21.50;58.60;;;;;;5035261;28;20041;-68
2022/05/20 12:43:04;;;;;;;9.38;6.30;;;21.50;58.90;;;;;;5042997;28;20033;-66
2022/05/20 12:45:49;;;;;;;9.82;7.45;;;21.50;59.30;;;;;;5042977;28;20388;-68
2022/05/20 12:48:19;;;;;;;8.45;6.05;;;21.40;60.00;;;;;;5038217;28;20064;-67
2022/05/20 12:50:58;;;;;;;9.75;7.40;;;21.20;61.10;;;;;;5043354;28;20021;-67
2022/05/20 12:53:29;;;;;;;7.97;5.63;;;21.10;62.20;;;;;;5046231;28;20025;-67
2022/05/20 12:55:56;;;;;;;6.63;5.57;;;21.00;62.90;;;;;;5045760;28;20021;-67
2022/05/20 12:58:28;;;;;;;7.75;5.10;;;20.90;63.80;;;;;;5043638;28;20028;-67
2022/05/20 13:00:58;;;;;;;6.93;5.38;;;20.90;64.40;;;;;;5040031;28;20036;-67
2022/05/20 13:03:35;;;;;;;6.63;4.88;;;20.90;64.60;;;;;;5045153;28;20056;-67
2022/05/20 13:06:21;;;;;;;7.95;5.32;;;20.90;64.80;;;;;;5045155;28;20105;-68
2022/05/20 13:08:55;;;;;;;7.68;5.30;;;20.80;65.30;;;;;;5043095;28;20025;-68
2022/05/20 13:11:23;;;;;;;9.40;5.95;;;20.80;65.70;;;;;;5044772;28;20025;-68
2022/05/20 13:13:55;;;;;;;9.43;7.93;;;20.60;67.50;;;;;;5042201;28;20468;-68
2022/05/20 13:16:23;;;;;;;11.30;8.75;;;20.40;69.90;;;;;;5043420;28;20040;-67
2022/05/20 13:19:04;;;;;;;10.88;9.07;;;20.20;70.80;;;;;;5041072;28;20020;-68
2022/05/20 13:21:41;;;;;;;15.82;14.00;;;20.10;71.70;;;;;;5039603;28;20039;-68
2022/05/20 13:24:16;;;;;;;15.27;12.95;;;20.00;73.80;;;;;;5042374;28;20028;-68
2022/05/20 13:26:42;;;;;;;14.68;12.55;;;19.80;75.10;;;;;;5039023;28;20055;-68
2022/05/20 13:29:17;;;;;;;14.35;12.43;;;19.80;75.10;;;;;;5043803;28;20021;-68
2022/05/20 13:31:44;;;;;;;13.20;10.77;;;19.80;75.80;;;;;;5044176;28;20040;-68
2022/05/20 13:34:10;;;;;;;12.13;10.25;;;19.90;75.70;;;;;;5044033;28;20030;-68
2022/05/20 13:36:44;;;;;;;13.55;10.88;;;20.10;75.30;;;;;;5039816;28;20025;-67
2022/05/20 13:39:16;;;;;;;12.88;10.43;;;20.20;75.00;;;;;;5048876;28;20029;-66
2022/05/20 13:41:44;;;;;;;13.48;11.35;;;20.30;75.10;;;;;;5043713;28;20020;-67
2022/05/20 13:44:10;;;;;;;11.55;9.27;;;20.30;75.00;;;;;;5040977;28;20017;-68
2022/05/20 13:49:28;;;;;;;;;;;20.30;75.10;;;;;;5047021;28;20035;-67
2022/05/20 13:52:03;;;;;;;14.15;11.77;;;20.30;75.40;;;;;;5053932;28;20353;-66